sensor_id;sensor_type;location;lat;lon;timestamp;pressure;altitude;pressure_sealevel;temperature;humidity
19447;BME280;9862;49.462;11.054;2023-08-07T00:00:42;97296.34;;;13.47;100.00
19447;BME280;9862;49.462;11.054;2023-08-07T00:03:09;97285.81;;;13.40;100.00
19447;BME280;9862;49.462;11.054;2023-08-07T00:05:37;97279.59;;;13.35;100.00
19447;BME280;9862;49.462;11.054;2023-08-07T00:08:04;97299.25;;;13.29;100.00
19447;BME280;9862;49.462;11.054;2023-08-07T00:10:32;97302.69;;;13.24;100.00
19447;BME280;9862;49.462;11.054;2023-08-07T00:12:58;97296.03;;;13.27;100.00
19447;BME280;9862;49.462;11.054;2023-08-07T00:15:25;97290.19;;;13.30;100.00
19447;BME280;9862;49.462;11.054;2023-08-07T00:17:52;97295.78;;;13.28;100.00
19447;BME280;9862;49.462;11.054;2023-08-07T00:20:19;97283.94;;;13.41;100.00
19447;BME280;9862;49.462;11.054;2023-08-07T00:22:45;97297.81;;;13.38;100.00
19447;BME280;9862;49.462;11.054;2023-08-07T00:25:12;97296.84;;;13.44;100.00
19447;BME280;9862;49.462;11.054;2023-08-07T00:27:41;97299.25;;;13.29;100.00
19447;BME280;9862;49.462;11.054;2023-08-07T00:30:08;97296.03;;;13.27;100.00
19447;BME280;9862;49.462;11.054;2023-08-07T00:32:35;97296.78;;;13.22;100.00
19447;BME280;9862;49.462;11.054;2023-08-07T00:35:02;97289.47;;;13.34;100.00
19447;BME280;9862;49.462;11.054;2023-08-07T00:37:29;97284.03;;;13.29;100.00
19447;BME280;9862;49.462;11.054;2023-08-07T00:39:56;97296.69;;;13.34;100.00
19447;BME280;9862;49.462;11.054;2023-08-07T00:42:23;97283.22;;;13.29;100.00
19447;BME280;9862;49.462;11.054;2023-08-07T00:44:52;97271.56;;;13.35;100.00
19447;BME280;9862;49.462;11.054;2023-08-07T00:47:19;97286.63;;;13.41;100.00
19447;BME280;9862;49.462;11.054;2023-08-07T00:49:46;97276.97;;;13.40;100.00
19447;BME280;9862;49.462;11.054;2023-08-07T00:52:13;97285.25;;;13.38;100.00
19447;BME280;9862;49.462;11.054;2023-08-07T00:54:40;97282.31;;;13.40;100.00
19447;BME280;9862;49.462;11.054;2023-08-07T00:57:10;97285.09;;;13.45;100.00
19447;BME280;9862;49.462;11.054;2023-08-07T00:59:37;97288.31;;;13.47;100.00
19447;BME280;9862;49.462;11.054;2023-08-07T01:02:07;97306.47;;;13.28;100.00
19447;BME280;9862;49.462;11.054;2023-08-07T01:04:34;97297.25;;;13.36;100.00
19447;BME280;9862;49.462;11.054;2023-08-07T01:07:00;97292.72;;;13.36;100.00
19447;BME280;9862;49.462;11.054;2023-08-07T01:09:27;97298.38;;;13.23;100.00
19447;BME280;9862;49.462;11.054;2023-08-07T01:11:57;97308.19;;;13.34;100.00
19447;BME280;9862;49.462;11.054;2023-08-07T01:14:33;97302.03;;;13.34;100.00
19447;BME280;9862;49.462;11.054;2023-08-07T01:17:08;97300.41;;;13.33;100.00
19447;BME280;9862;49.462;11.054;2023-08-07T01:19:36;97300.97;;;13.35;100.00
19447;BME280;9862;49.462;11.054;2023-08-07T01:22:05;97300.97;;;13.52;100.00
19447;BME280;9862;49.462;11.054;2023-08-07T01:24:32;97302.81;;;13.51;100.00
19447;BME280;9862;49.462;11.054;2023-08-07T01:27:02;97312.78;;;13.39;100.00
19447;BME280;9862;49.462;11.054;2023-08-07T01:29:38;97315.00;;;13.42;100.00
19447;BME280;9862;49.462;11.054;2023-08-07T01:32:10;97302.59;;;13.36;100.00
19447;BME280;9862;49.462;11.054;2023-08-07T01:34:41;97317.72;;;13.30;100.00
19447;BME280;9862;49.462;11.054;2023-08-07T01:37:10;97321.94;;;13.43;100.00
19447;BME280;9862;49.462;11.054;2023-08-07T01:39:39;97321.53;;;13.51;100.00
19447;BME280;9862;49.462;11.054;2023-08-07T01:42:08;97320.63;;;13.29;100.00
19447;BME280;9862;49.462;11.054;2023-08-07T01:44:36;97321.28;;;13.36;100.00
19447;BME280;9862;49.462;11.054;2023-08-07T01:47:04;97321.44;;;13.46;100.00
19447;BME280;9862;49.462;11.054;2023-08-07T01:49:30;97331.97;;;13.36;100.00
19447;BME280;9862;49.462;11.054;2023-08-07T01:51:57;97320.78;;;13.39;100.00
19447;BME280;9862;49.462;11.054;2023-08-07T01:54:26;97327.34;;;13.48;100.00
19447;BME280;9862;49.462;11.054;2023-08-07T01:56:53;97332.53;;;13.55;100.00
19447;BME280;9862;49.462;11.054;2023-08-07T01:59:19;97338.13;;;13.53;100.00
19447;BME280;9862;49.462;11.054;2023-08-07T02:01:46;97343.00;;;13.39;100.00
19447;BME280;9862;49.462;11.054;2023-08-07T02:04:12;97344.69;;;13.45;100.00
19447;BME280;9862;49.462;11.054;2023-08-07T02:06:40;97349.63;;;13.37;100.00
19447;BME280;9862;49.462;11.054;2023-08-07T02:09:07;97342.25;;;13.27;100.00
19447;BME280;9862;49.462;11.054;2023-08-07T02:11:35;97346.13;;;13.20;100.00
19447;BME280;9862;49.462;11.054;2023-08-07T02:14:02;97353.81;;;13.16;100.00
19447;BME280;9862;49.462;11.054;2023-08-07T02:16:29;97355.41;;;13.00;100.00
19447;BME280;9862;49.462;11.054;2023-08-07T02:18:56;97346.19;;;13.08;100.00
19447;BME280;9862;49.462;11.054;2023-08-07T02:21:23;97341.75;;;13.13;100.00
19447;BME280;9862;49.462;11.054;2023-08-07T02:23:49;97335.38;;;13.31;100.00
19447;BME280;9862;49.462;11.054;2023-08-07T02:26:16;97349.16;;;13.23;100.00
19447;BME280;9862;49.462;11.054;2023-08-07T02:28:45;97348.72;;;13.14;100.00
19447;BME280;9862;49.462;11.054;2023-08-07T02:31:11;97352.72;;;13.29;100.00
19447;BME280;9862;49.462;11.054;2023-08-07T02:33:38;97368.84;;;13.34;100.00
19447;BME280;9862;49.462;11.054;2023-08-07T02:36:06;97365.31;;;13.16;100.00
19447;BME280;9862;49.462;11.054;2023-08-07T02:38:34;97369.72;;;13.23;100.00
19447;BME280;9862;49.462;11.054;2023-08-07T02:41:04;97369.84;;;13.16;100.00
19447;BME280;9862;49.462;11.054;2023-08-07T02:43:35;97357.75;;;13.25;100.00
19447;BME280;9862;49.462;11.054;2023-08-07T02:46:04;97365.06;;;13.18;100.00
19447;BME280;9862;49.462;11.054;2023-08-07T02:48:31;97367.28;;;13.21;100.00
19447;BME280;9862;49.462;11.054;2023-08-07T02:50:59;97358.00;;;13.12;100.00
19447;BME280;9862;49.462;11.054;2023-08-07T02:53:26;97367.25;;;13.04;100.00
19447;BME280;9862;49.462;11.054;2023-08-07T02:55:52;97377.94;;;13.04;100.00
19447;BME280;9862;49.462;11.054;2023-08-07T02:58:19;97372.41;;;13.11;100.00
19447;BME280;9862;49.462;11.054;2023-08-07T03:00:46;97375.88;;;13.23;100.00
19447;BME280;9862;49.462;11.054;2023-08-07T03:03:14;97377.97;;;13.21;100.00
19447;BME280;9862;49.462;11.054;2023-08-07T03:05:48;97382.03;;;13.12;100.00
19447;BME280;9862;49.462;11.054;2023-08-07T03:08:15;97386.56;;;13.11;100.00
19447;BME280;9862;49.462;11.054;2023-08-07T03:10:49;97391.41;;;12.98;100.00
19447;BME280;9862;49.462;11.054;2023-08-07T03:13:17;97391.84;;;13.06;100.00
19447;BME280;9862;49.462;11.054;2023-08-07T03:15:44;97393.63;;;13.17;100.00
19447;BME280;9862;49.462;11.054;2023-08-07T03:18:11;97391.22;;;13.16;100.00
19447;BME280;9862;49.462;11.054;2023-08-07T03:20:39;97390.41;;;13.15;100.00
19447;BME280;9862;49.462;11.054;2023-08-07T03:23:05;97399.34;;;13.21;100.00
19447;BME280;9862;49.462;11.054;2023-08-07T03:25:34;97396.66;;;13.21;100.00
19447;BME280;9862;49.462;11.054;2023-08-07T03:28:02;97403.66;;;13.10;100.00
19447;BME280;9862;49.462;11.054;2023-08-07T03:30:29;97398.31;;;13.10;100.00
19447;BME280;9862;49.462;11.054;2023-08-07T03:32:56;97408.38;;;13.03;100.00
19447;BME280;9862;49.462;11.054;2023-08-07T03:35:24;97401.84;;;12.99;100.00
19447;BME280;9862;49.462;11.054;2023-08-07T03:37:52;97408.13;;;13.05;100.00
19447;BME280;9862;49.462;11.054;2023-08-07T03:40:19;97412.72;;;13.09;100.00
19447;BME280;9862;49.462;11.054;2023-08-07T03:42:46;97414.72;;;13.02;100.00
19447;BME280;9862;49.462;11.054;2023-08-07T03:45:13;97416.38;;;13.03;100.00
19447;BME280;9862;49.462;11.054;2023-08-07T03:47:40;97413.47;;;12.93;100.00
19447;BME280;9862;49.462;11.054;2023-08-07T03:50:07;97425.91;;;12.99;100.00
19447;BME280;9862;49.462;11.054;2023-08-07T03:52:34;97432.78;;;12.95;100.00
19447;BME280;9862;49.462;11.054;2023-08-07T03:55:04;97441.03;;;12.94;100.00
19447;BME280;9862;49.462;11.054;2023-08-07T03:57:33;97439.53;;;12.86;100.00
19447;BME280;9862;49.462;11.054;2023-08-07T03:59:59;97437.16;;;13.01;100.00
19447;BME280;9862;49.462;11.054;2023-08-07T04:02:26;97436.50;;;12.94;100.00
19447;BME280;9862;49.462;11.054;2023-08-07T04:04:55;97446.84;;;12.90;100.00
19447;BME280;9862;49.462;11.054;2023-08-07T04:07:22;97448.81;;;12.95;100.00
19447;BME280;9862;49.462;11.054;2023-08-07T04:09:49;97452.38;;;13.01;100.00
19447;BME280;9862;49.462;11.054;2023-08-07T04:12:17;97460.13;;;13.02;100.00
19447;BME280;9862;49.462;11.054;2023-08-07T04:14:44;97470.25;;;13.00;100.00
19447;BME280;9862;49.462;11.054;2023-08-07T04:17:11;97459.56;;;13.00;100.00
19447;BME280;9862;49.462;11.054;2023-08-07T04:19:38;97459.72;;;12.94;100.00
19447;BME280;9862;49.462;11.054;2023-08-07T04:22:05;97466.53;;;13.01;100.00
19447;BME280;9862;49.462;11.054;2023-08-07T04:24:33;97464.72;;;13.18;100.00
19447;BME280;9862;49.462;11.054;2023-08-07T04:27:00;97466.13;;;13.21;100.00
19447;BME280;9862;49.462;11.054;2023-08-07T04:29:28;97470.66;;;13.21;100.00
19447;BME280;9862;49.462;11.054;2023-08-07T04:31:54;97476.53;;;13.06;100.00
19447;BME280;9862;49.462;11.054;2023-08-07T04:34:22;97481.06;;;13.05;100.00
19447;BME280;9862;49.462;11.054;2023-08-07T04:36:49;97479.50;;;13.09;100.00
19447;BME280;9862;49.462;11.054;2023-08-07T04:39:20;97484.28;;;13.07;100.00
19447;BME280;9862;49.462;11.054;2023-08-07T04:41:46;97489.44;;;12.97;100.00
19447;BME280;9862;49.462;11.054;2023-08-07T04:44:15;97502.31;;;13.00;100.00
19447;BME280;9862;49.462;11.054;2023-08-07T04:46:43;97489.44;;;12.97;100.00
19447;BME280;9862;49.462;11.054;2023-08-07T04:49:10;97495.84;;;12.96;100.00
19447;BME280;9862;49.462;11.054;2023-08-07T04:51:36;97500.41;;;12.84;100.00
19447;BME280;9862;49.462;11.054;2023-08-07T04:54:03;97495.72;;;12.91;100.00
19447;BME280;9862;49.462;11.054;2023-08-07T04:56:30;97504.41;;;12.98;100.00
19447;BME280;9862;49.462;11.054;2023-08-07T04:58:57;97495.25;;;12.94;100.00
19447;BME280;9862;49.462;11.054;2023-08-07T05:01:24;97497.53;;;13.02;100.00
19447;BME280;9862;49.462;11.054;2023-08-07T05:03:53;97512.69;;;12.85;100.00
19447;BME280;9862;49.462;11.054;2023-08-07T05:06:20;97499.50;;;13.07;100.00
19447;BME280;9862;49.462;11.054;2023-08-07T05:08:47;97502.63;;;13.15;100.00
19447;BME280;9862;49.462;11.054;2023-08-07T05:11:13;97509.63;;;12.93;100.00
19447;BME280;9862;49.462;11.054;2023-08-07T05:13:40;97513.59;;;12.90;100.00
19447;BME280;9862;49.462;11.054;2023-08-07T05:16:07;97512.75;;;13.02;100.00
19447;BME280;9862;49.462;11.054;2023-08-07T05:18:36;97507.56;;;12.95;100.00
19447;BME280;9862;49.462;11.054;2023-08-07T05:21:04;97518.38;;;12.88;100.00
19447;BME280;9862;49.462;11.054;2023-08-07T05:23:36;97516.03;;;13.04;100.00
19447;BME280;9862;49.462;11.054;2023-08-07T05:26:03;97515.06;;;13.10;100.00
19447;BME280;9862;49.462;11.054;2023-08-07T05:28:29;97520.56;;;13.03;100.00
19447;BME280;9862;49.462;11.054;2023-08-07T05:30:57;97524.13;;;13.09;100.00
19447;BME280;9862;49.462;11.054;2023-08-07T05:33:23;97524.72;;;12.99;100.00
19447;BME280;9862;49.462;11.054;2023-08-07T05:35:50;97531.00;;;13.05;100.00
19447;BME280;9862;49.462;11.054;2023-08-07T05:38:19;97532.38;;;13.07;100.00
19447;BME280;9862;49.462;11.054;2023-08-07T05:40:46;97530.19;;;13.04;100.00
19447;BME280;9862;49.462;11.054;2023-08-07T05:43:13;97527.03;;;13.07;100.00
19447;BME280;9862;49.462;11.054;2023-08-07T05:45:42;97533.75;;;13.22;100.00
19447;BME280;9862;49.462;11.054;2023-08-07T05:48:10;97541.19;;;13.20;100.00
19447;BME280;9862;49.462;11.054;2023-08-07T05:50:37;97539.22;;;13.15;100.00
19447;BME280;9862;49.462;11.054;2023-08-07T05:53:03;97543.75;;;13.14;100.00
19447;BME280;9862;49.462;11.054;2023-08-07T05:55:31;97539.22;;;13.15;100.00
19447;BME280;9862;49.462;11.054;2023-08-07T05:57:58;97544.44;;;13.22;100.00
19447;BME280;9862;49.462;11.054;2023-08-07T06:00:25;97552.81;;;13.13;100.00
19447;BME280;9862;49.462;11.054;2023-08-07T06:02:51;97550.34;;;13.12;100.00
19447;BME280;9862;49.462;11.054;2023-08-07T06:05:18;97553.06;;;13.00;100.00
19447;BME280;9862;49.462;11.054;2023-08-07T06:07:46;97555.69;;;13.12;100.00
19447;BME280;9862;49.462;11.054;2023-08-07T06:10:12;97561.41;;;13.15;100.00
19447;BME280;9862;49.462;11.054;2023-08-07T06:12:41;97569.94;;;12.89;100.00
19447;BME280;9862;49.462;11.054;2023-08-07T06:15:08;97565.72;;;13.05;100.00
19447;BME280;9862;49.462;11.054;2023-08-07T06:17:35;97565.84;;;12.98;100.00
19447;BME280;9862;49.462;11.054;2023-08-07T06:20:02;97562.25;;;12.93;100.00
19447;BME280;9862;49.462;11.054;2023-08-07T06:22:30;97562.91;;;13.11;100.00
19447;BME280;9862;49.462;11.054;2023-08-07T06:24:58;97561.88;;;13.12;100.00
19447;BME280;9862;49.462;11.054;2023-08-07T06:27:25;97564.88;;;13.28;100.00
19447;BME280;9862;49.462;11.054;2023-08-07T06:29:53;97576.28;;;13.23;100.00
19447;BME280;9862;49.462;11.054;2023-08-07T06:32:21;97572.66;;;13.29;100.00
19447;BME280;9862;49.462;11.054;2023-08-07T06:34:47;97579.16;;;13.33;100.00
19447;BME280;9862;49.462;11.054;2023-08-07T06:37:15;97577.66;;;13.26;100.00
19447;BME280;9862;49.462;11.054;2023-08-07T06:39:42;97574.19;;;13.25;100.00
19447;BME280;9862;49.462;11.054;2023-08-07T06:42:09;97583.13;;;13.19;100.00
19447;BME280;9862;49.462;11.054;2023-08-07T06:44:35;97585.56;;;13.21;100.00
19447;BME280;9862;49.462;11.054;2023-08-07T06:47:04;97580.22;;;13.21;100.00
19447;BME280;9862;49.462;11.054;2023-08-07T06:49:31;97584.63;;;13.27;100.00
19447;BME280;9862;49.462;11.054;2023-08-07T06:51:58;97591.31;;;13.41;100.00
19447;BME280;9862;49.462;11.054;2023-08-07T06:54:25;97591.72;;;13.21;100.00
19447;BME280;9862;49.462;11.054;2023-08-07T06:56:52;97594.75;;;13.13;100.00
19447;BME280;9862;49.462;11.054;2023-08-07T06:59:19;97604.63;;;13.12;100.00
19447;BME280;9862;49.462;11.054;2023-08-07T07:01:46;97599.63;;;13.16;100.00
19447;BME280;9862;49.462;11.054;2023-08-07T07:04:15;97600.66;;;13.27;100.00
19447;BME280;9862;49.462;11.054;2023-08-07T07:06:41;97597.88;;;13.22;100.00
19447;BME280;9862;49.462;11.054;2023-08-07T07:09:08;97600.31;;;13.11;100.00
19447;BME280;9862;49.462;11.054;2023-08-07T07:11:35;97592.09;;;13.25;100.00
19447;BME280;9862;49.462;11.054;2023-08-07T07:14:04;97609.41;;;13.22;100.00
19447;BME280;9862;49.462;11.054;2023-08-07T07:16:30;97603.91;;;13.29;100.00
19447;BME280;9862;49.462;11.054;2023-08-07T07:18:57;97612.38;;;13.37;100.00
19447;BME280;9862;49.462;11.054;2023-08-07T07:21:26;97617.44;;;13.51;100.00
19447;BME280;9862;49.462;11.054;2023-08-07T07:23:53;97626.91;;;13.30;100.00
19447;BME280;9862;49.462;11.054;2023-08-07T07:26:20;97631.44;;;13.17;100.00
19447;BME280;9862;49.462;11.054;2023-08-07T07:28:47;97627.50;;;13.32;100.00
19447;BME280;9862;49.462;11.054;2023-08-07T07:31:16;97644.22;;;13.27;100.00
19447;BME280;9862;49.462;11.054;2023-08-07T07:33:43;97633.22;;;13.24;100.00
19447;BME280;9862;49.462;11.054;2023-08-07T07:36:14;97637.34;;;13.43;100.00
19447;BME280;9862;49.462;11.054;2023-08-07T07:38:42;97653.25;;;13.50;100.00
19447;BME280;9862;49.462;11.054;2023-08-07T07:41:09;97654.06;;;13.50;100.00
19447;BME280;9862;49.462;11.054;2023-08-07T07:43:37;97646.84;;;13.51;100.00
19447;BME280;9862;49.462;11.054;2023-08-07T07:46:04;97655.06;;;13.72;100.00
19447;BME280;9862;49.462;11.054;2023-08-07T07:48:31;97662.44;;;13.54;100.00
19447;BME280;9862;49.462;11.054;2023-08-07T07:50:58;97668.72;;;13.48;100.00
19447;BME280;9862;49.462;11.054;2023-08-07T07:53:26;97661.59;;;13.65;100.00
19447;BME280;9862;49.462;11.054;2023-08-07T07:55:54;97667.25;;;13.68;100.00
19447;BME280;9862;49.462;11.054;2023-08-07T07:58:23;97667.94;;;13.75;100.00
19447;BME280;9862;49.462;11.054;2023-08-07T08:00:50;97676.34;;;13.67;100.00
19447;BME280;9862;49.462;11.054;2023-08-07T08:03:19;97680.03;;;13.78;100.00
19447;BME280;9862;49.462;11.054;2023-08-07T08:05:49;97679.13;;;13.72;100.00
19447;BME280;9862;49.462;11.054;2023-08-07T08:08:16;97688.53;;;13.75;100.00
19447;BME280;9862;49.462;11.054;2023-08-07T08:10:43;97700.19;;;13.57;100.00
19447;BME280;9862;49.462;11.054;2023-08-07T08:13:11;97706.22;;;13.64;100.00
19447;BME280;9862;49.462;11.054;2023-08-07T08:15:38;97709.41;;;13.38;100.00
19447;BME280;9862;49.462;11.054;2023-08-07T08:18:06;97701.25;;;13.56;100.00
19447;BME280;9862;49.462;11.054;2023-08-07T08:20:32;97711.66;;;13.69;100.00
19447;BME280;9862;49.462;11.054;2023-08-07T08:22:59;97706.00;;;13.66;100.00
19447;BME280;9862;49.462;11.054;2023-08-07T08:25:26;97708.63;;;13.78;100.00
19447;BME280;9862;49.462;11.054;2023-08-07T08:27:53;97726.91;;;13.69;100.00
19447;BME280;9862;49.462;11.054;2023-08-07T08:30:21;97734.03;;;13.63;100.00
19447;BME280;9862;49.462;11.054;2023-08-07T08:32:48;97721.72;;;13.62;100.00
19447;BME280;9862;49.462;11.054;2023-08-07T08:35:15;97732.53;;;13.56;100.00
19447;BME280;9862;49.462;11.054;2023-08-07T08:37:42;97729.97;;;13.61;100.00
19447;BME280;9862;49.462;11.054;2023-08-07T08:40:09;97733.22;;;13.63;100.00
19447;BME280;9862;49.462;11.054;2023-08-07T08:42:39;97733.44;;;13.73;100.00
19447;BME280;9862;49.462;11.054;2023-08-07T08:45:08;97735.41;;;13.66;100.00
19447;BME280;9862;49.462;11.054;2023-08-07T08:47:38;97741.09;;;13.81;100.00
19447;BME280;9862;49.462;11.054;2023-08-07T08:50:07;97745.72;;;13.86;100.00
19447;BME280;9862;49.462;11.054;2023-08-07T08:52:36;97751.63;;;13.88;100.00
19447;BME280;9862;49.462;11.054;2023-08-07T08:55:04;97757.25;;;13.74;100.00
19447;BME280;9862;49.462;11.054;2023-08-07T08:57:32;97767.47;;;13.78;100.00
19447;BME280;9862;49.462;11.054;2023-08-07T09:00:00;97749.97;;;13.98;100.00
19447;BME280;9862;49.462;11.054;2023-08-07T09:02:27;97766.06;;;13.87;100.00
19447;BME280;9862;49.462;11.054;2023-08-07T09:04:55;97751.78;;;13.81;100.00
19447;BME280;9862;49.462;11.054;2023-08-07T09:07:22;97777.50;;;13.70;100.00
19447;BME280;9862;49.462;11.054;2023-08-07T09:09:50;97772.81;;;13.78;100.00
19447;BME280;9862;49.462;11.054;2023-08-07T09:12:20;97768.44;;;13.71;100.00
19447;BME280;9862;49.462;11.054;2023-08-07T09:14:50;97781.78;;;13.83;100.00
19447;BME280;9862;49.462;11.054;2023-08-07T09:17:21;97783.78;;;13.64;100.00
19447;BME280;9862;49.462;11.054;2023-08-07T09:19:50;97779.34;;;13.82;100.00
19447;BME280;9862;49.462;11.054;2023-08-07T09:22:19;97787.47;;;13.87;100.00
19447;BME280;9862;49.462;11.054;2023-08-07T09:24:46;97793.38;;;13.89;100.00
19447;BME280;9862;49.462;11.054;2023-08-07T09:27:14;97791.97;;;13.98;100.00
19447;BME280;9862;49.462;11.054;2023-08-07T09:29:41;97798.81;;;14.06;100.00
19447;BME280;9862;49.462;11.054;2023-08-07T09:32:08;97791.19;;;14.26;100.00
19447;BME280;9862;49.462;11.054;2023-08-07T09:34:38;97797.84;;;14.23;100.00
19447;BME280;9862;49.462;11.054;2023-08-07T09:37:06;97799.97;;;14.21;100.00
19447;BME280;9862;49.462;11.054;2023-08-07T09:39:34;97816.47;;;14.18;100.00
19447;BME280;9862;49.462;11.054;2023-08-07T09:42:02;97804.06;;;14.12;100.00
19447;BME280;9862;49.462;11.054;2023-08-07T09:44:35;97816.88;;;13.98;100.00
19447;BME280;9862;49.462;11.054;2023-08-07T09:47:11;97816.31;;;13.85;100.00
19447;BME280;9862;49.462;11.054;2023-08-07T09:49:39;97807.00;;;13.87;100.00
19447;BME280;9862;49.462;11.054;2023-08-07T09:52:06;97812.44;;;14.04;100.00
19447;BME280;9862;49.462;11.054;2023-08-07T09:54:35;97818.50;;;13.88;100.00
19447;BME280;9862;49.462;11.054;2023-08-07T09:57:03;97827.69;;;14.03;100.00
19447;BME280;9862;49.462;11.054;2023-08-07T09:59:31;97819.75;;;14.20;100.00
19447;BME280;9862;49.462;11.054;2023-08-07T10:01:59;97836.25;;;14.17;100.00
19447;BME280;9862;49.462;11.054;2023-08-07T10:04:27;97828.72;;;14.14;100.00
19447;BME280;9862;49.462;11.054;2023-08-07T10:06:55;97828.34;;;14.22;100.00
19447;BME280;9862;49.462;11.054;2023-08-07T10:09:23;97834.59;;;14.28;100.00
19447;BME280;9862;49.462;11.054;2023-08-07T10:11:51;97835.44;;;14.17;100.00
19447;BME280;9862;49.462;11.054;2023-08-07T10:14:18;97832.69;;;14.12;100.00
19447;BME280;9862;49.462;11.054;2023-08-07T10:16:45;97838.03;;;14.12;100.00
19447;BME280;9862;49.462;11.054;2023-08-07T10:19:12;97838.72;;;14.19;100.00
19447;BME280;9862;49.462;11.054;2023-08-07T10:21:39;97843.38;;;14.12;100.00
19447;BME280;9862;49.462;11.054;2023-08-07T10:24:08;97853.06;;;14.01;100.00
19447;BME280;9862;49.462;11.054;2023-08-07T10:26:40;97851.16;;;14.25;100.00
19447;BME280;9862;49.462;11.054;2023-08-07T10:29:11;97848.59;;;14.18;100.00
19447;BME280;9862;49.462;11.054;2023-08-07T10:31:40;97847.78;;;14.18;100.00
19447;BME280;9862;49.462;11.054;2023-08-07T10:34:09;97855.88;;;14.35;100.00
19447;BME280;9862;49.462;11.054;2023-08-07T10:36:36;97863.91;;;14.35;100.00
19447;BME280;9862;49.462;11.054;2023-08-07T10:39:07;97857.72;;;14.57;100.00
19447;BME280;9862;49.462;11.054;2023-08-07T10:41:39;97871.81;;;14.53;100.00
19447;BME280;9862;49.462;11.054;2023-08-07T10:44:18;97873.81;;;14.57;100.00
19447;BME280;9862;49.462;11.054;2023-08-07T10:46:49;97871.59;;;14.43;100.00
19447;BME280;9862;49.462;11.054;2023-08-07T10:49:35;97876.13;;;14.42;100.00
19447;BME280;9862;49.462;11.054;2023-08-07T10:52:03;97877.75;;;14.55;100.00
19447;BME280;9862;49.462;11.054;2023-08-07T10:54:30;97875.44;;;14.58;100.00
19447;BME280;9862;49.462;11.054;2023-08-07T10:56:59;97886.25;;;14.52;100.00
19447;BME280;9862;49.462;11.054;2023-08-07T10:59:29;97887.81;;;14.48;100.00
19447;BME280;9862;49.462;11.054;2023-08-07T11:01:55;97882.59;;;14.70;100.00
19447;BME280;9862;49.462;11.054;2023-08-07T11:04:24;97882.94;;;14.73;100.00
19447;BME280;9862;49.462;11.054;2023-08-07T11:06:52;97883.97;;;14.72;100.00
19447;BME280;9862;49.462;11.054;2023-08-07T11:09:20;97890.41;;;14.71;100.00
19447;BME280;9862;49.462;11.054;2023-08-07T11:11:47;97893.06;;;14.71;100.00
19447;BME280;9862;49.462;11.054;2023-08-07T11:14:15;97894.94;;;14.99;100.00
19447;BME280;9862;49.462;11.054;2023-08-07T11:16:44;97904.56;;;14.83;100.00
19447;BME280;9862;49.462;11.054;2023-08-07T11:19:13;97900.81;;;14.84;100.00
19447;BME280;9862;49.462;11.054;2023-08-07T11:21:40;97897.56;;;14.82;100.00
19447;BME280;9862;49.462;11.054;2023-08-07T11:24:08;97900.69;;;14.91;100.00
19447;BME280;9862;49.462;11.054;2023-08-07T11:26:35;97896.75;;;15.10;100.00
19447;BME280;9862;49.462;11.054;2023-08-07T11:29:01;97906.91;;;15.08;100.00
19447;BME280;9862;49.462;11.054;2023-08-07T11:31:28;97906.84;;;14.92;100.00
19447;BME280;9862;49.462;11.054;2023-08-07T11:33:57;97905.22;;;14.91;100.00
19447;BME280;9862;49.462;11.054;2023-08-07T11:36:24;97911.34;;;14.74;100.00
19447;BME280;9862;49.462;11.054;2023-08-07T11:38:52;97911.69;;;14.78;100.00
19447;BME280;9862;49.462;11.054;2023-08-07T11:41:19;97900.66;;;14.63;100.00
19447;BME280;9862;49.462;11.054;2023-08-07T11:43:47;97909.63;;;14.68;100.00
19447;BME280;9862;49.462;11.054;2023-08-07T11:46:15;97905.72;;;14.87;100.00
19447;BME280;9862;49.462;11.054;2023-08-07T11:48:43;97923.75;;;14.92;100.00
19447;BME280;9862;49.462;11.054;2023-08-07T11:51:14;97923.72;;;14.64;100.00
19447;BME280;9862;49.462;11.054;2023-08-07T11:53:41;97922.63;;;14.88;100.00
19447;BME280;9862;49.462;11.054;2023-08-07T11:56:09;97923.13;;;14.73;100.00
19447;BME280;9862;49.462;11.054;2023-08-07T11:58:37;97930.09;;;14.74;100.00
19447;BME280;9862;49.462;11.054;2023-08-07T12:01:05;97923.06;;;14.85;100.00
19447;BME280;9862;49.462;11.054;2023-08-07T12:03:34;97937.72;;;14.94;100.00
19447;BME280;9862;49.462;11.054;2023-08-07T12:06:05;97934.97;;;15.17;100.00
19447;BME280;9862;49.462;11.054;2023-08-07T12:08:34;97944.44;;;15.08;100.00
19447;BME280;9862;49.462;11.054;2023-08-07T12:11:01;97935.75;;;14.89;100.00
19447;BME280;9862;49.462;11.054;2023-08-07T12:13:29;97944.88;;;14.88;100.00
19447;BME280;9862;49.462;11.054;2023-08-07T12:15:58;97937.59;;;15.01;100.00
19447;BME280;9862;49.462;11.054;2023-08-07T12:18:27;97947.19;;;15.13;100.00
19447;BME280;9862;49.462;11.054;2023-08-07T12:20:57;97953.53;;;15.07;100.00
19447;BME280;9862;49.462;11.054;2023-08-07T12:23:24;97950.03;;;15.07;100.00
19447;BME280;9862;49.462;11.054;2023-08-07T12:25:52;97953.03;;;14.82;100.00
19447;BME280;9862;49.462;11.054;2023-08-07T12:28:19;97964.25;;;14.67;100.00
19447;BME280;9862;49.462;11.054;2023-08-07T12:30:47;97947.81;;;14.64;100.00
19447;BME280;9862;49.462;11.054;2023-08-07T12:33:14;97954.91;;;14.81;100.00
19447;BME280;9862;49.462;11.054;2023-08-07T12:35:41;97949.53;;;14.81;100.00
19447;BME280;9862;49.462;11.054;2023-08-07T12:38:08;97958.97;;;14.84;100.00
19447;BME280;9862;49.462;11.054;2023-08-07T12:40:36;97965.31;;;14.95;100.00
19447;BME280;9862;49.462;11.054;2023-08-07T12:43:04;97966.94;;;14.96;100.00
19447;BME280;9862;49.462;11.054;2023-08-07T12:45:32;97968.13;;;15.00;100.00
19447;BME280;9862;49.462;11.054;2023-08-07T12:48:00;97964.66;;;14.87;100.00
19447;BME280;9862;49.462;11.054;2023-08-07T12:50:28;97969.34;;;14.80;100.00
19447;BME280;9862;49.462;11.054;2023-08-07T12:52:55;97981.00;;;14.74;100.00